Terminal Aerodrome Forecast
Issued by NWS

Home | Current Version | Previous Version | Text Only | Print | Product List | Glossary On
Versions: 1 2 3 4 5 6 7 8 9 10 11 12 13 14 15 16 17
000
FTUS46 KMFR 232300
TAFRBG
TAF
KRBG 232337Z 2400/2424 25004KT P6SM -SHRA BKN035 OVC070
     FM240100 24004KT P6SM SCT030 BKN050
     FM241100 35005KT P6SM BKN020
     FM241700 36005KT P6SM FEW030
     FM242200 36008KT P6SM SKC=

USA.gov is the U.S. government's official web portal to all federal, state and local government web resources and services.